createdAt,value
2023-04-26T00:00:06.430Z,94525.00
2023-04-26T00:01:06.504Z,94525.00
2023-04-26T00:02:06.563Z,94527.00
2023-04-26T00:03:06.763Z,94527.00
2023-04-26T00:04:06.900Z,94525.00
2023-04-26T00:05:07.028Z,94527.00
2023-04-26T00:06:06.852Z,94527.00
2023-04-26T00:07:06.857Z,94527.00
2023-04-26T00:08:06.991Z,94527.00
2023-04-26T00:09:06.990Z,94525.00
2023-04-26T00:10:07.049Z,94525.00
2023-04-26T00:11:07.104Z,94524.00
2023-04-26T00:12:07.158Z,94524.00
2023-04-26T00:13:07.253Z,94524.00
2023-04-26T00:14:07.302Z,94522.00
2023-04-26T00:15:07.354Z,94525.00
2023-04-26T00:16:07.436Z,94524.00
2023-04-26T00:17:07.463Z,94524.00
2023-04-26T00:18:07.563Z,94524.00
2023-04-26T00:19:07.688Z,94524.00
2023-04-26T00:20:07.697Z,94525.00
2023-04-26T00:21:07.707Z,94527.00
2023-04-26T00:22:07.789Z,94529.00
2023-04-26T00:23:07.822Z,94529.00
2023-04-26T00:24:07.898Z,94529.00
2023-04-26T00:25:07.951Z,94531.00
2023-04-26T00:26:08.000Z,94531.00
2023-04-26T00:27:08.059Z,94529.00
2023-04-26T00:28:08.129Z,94527.00
2023-04-26T00:29:08.217Z,94527.00
2023-04-26T00:30:08.235Z,94524.00
2023-04-26T00:31:08.303Z,94524.00
2023-04-26T00:32:08.415Z,94527.00
2023-04-26T00:33:08.512Z,94527.00
2023-04-26T00:34:08.501Z,94527.00
2023-04-26T00:35:08.573Z,94529.00
2023-04-26T00:36:08.606Z,94531.00
2023-04-26T00:37:08.664Z,94531.00
2023-04-26T00:38:08.737Z,94531.00
2023-04-26T00:39:08.793Z,94531.00
2023-04-26T00:40:08.855Z,94529.00
2023-04-26T00:41:08.946Z,94527.00
2023-04-26T00:42:09.001Z,94524.00
2023-04-26T00:43:09.034Z,94525.00
2023-04-26T00:44:09.104Z,94522.00
2023-04-26T00:45:09.158Z,94518.00
2023-04-26T00:46:09.247Z,94518.00
2023-04-26T00:47:09.298Z,94516.00
2023-04-26T00:48:09.403Z,94512.00
2023-04-26T00:49:09.410Z,94512.00
2023-04-26T00:50:09.478Z,94512.00
2023-04-26T00:51:09.541Z,94512.00
2023-04-26T00:52:09.604Z,94510.00
2023-04-26T00:53:09.671Z,94510.00
2023-04-26T00:54:09.720Z,94510.00
2023-04-26T00:55:09.767Z,94504.00
2023-04-26T00:56:09.883Z,94512.00
2023-04-26T00:57:09.899Z,94512.00
2023-04-26T00:58:09.956Z,94512.00
2023-04-26T00:59:10.053Z,94516.00
2023-04-26T01:00:10.098Z,94508.00
2023-04-26T01:01:10.212Z,94506.00
2023-04-26T01:02:10.254Z,94506.00
2023-04-26T01:03:10.380Z,94504.00
2023-04-26T01:04:10.389Z,94506.00
2023-04-26T01:05:10.407Z,94506.00
2023-04-26T01:06:10.480Z,94510.00
2023-04-26T01:07:10.567Z,94510.00
2023-04-26T01:08:10.592Z,94512.00
2023-04-26T01:09:10.686Z,94512.00
2023-04-26T01:10:10.744Z,94510.00
2023-04-26T01:11:10.778Z,94510.00
2023-04-26T01:12:10.837Z,94506.00
2023-04-26T01:13:10.902Z,94506.00
2023-04-26T01:14:10.963Z,94506.00
2023-04-26T01:15:11.003Z,94502.00
2023-04-26T01:16:11.026Z,94502.00
2023-04-26T01:17:11.145Z,94500.00
2023-04-26T01:18:11.151Z,94504.00
2023-04-26T01:19:11.173Z,94506.00
2023-04-26T01:20:11.221Z,94506.00
2023-04-26T01:21:11.295Z,94506.00
2023-04-26T01:22:11.350Z,94506.00
2023-04-26T01:23:11.415Z,94506.00
2023-04-26T01:24:11.470Z,94502.00
2023-04-26T01:25:11.529Z,94506.00
2023-04-26T01:26:11.567Z,94504.00
2023-04-26T01:27:11.592Z,94506.00
2023-04-26T01:28:11.605Z,94502.00
2023-04-26T01:29:11.637Z,94506.00
2023-04-26T01:30:11.715Z,94504.00
2023-04-26T01:31:11.735Z,94506.00
2023-04-26T01:32:11.825Z,94506.00
2023-04-26T01:33:11.760Z,94510.00
2023-04-26T01:34:11.835Z,94510.00
2023-04-26T01:35:11.893Z,94510.00
2023-04-26T01:36:11.911Z,94512.00
2023-04-26T01:37:11.935Z,94510.00
2023-04-26T01:38:11.999Z,94510.00
2023-04-26T01:39:11.993Z,94512.00
2023-04-26T01:40:12.093Z,94512.00
2023-04-26T01:41:12.103Z,94510.00
2023-04-26T01:42:12.124Z,94514.00
2023-04-26T01:43:12.139Z,94518.00
2023-04-26T01:44:12.176Z,94516.00
2023-04-26T01:45:12.178Z,94516.00
2023-04-26T01:46:12.212Z,94516.00
2023-04-26T01:47:12.256Z,94516.00
2023-04-26T01:48:12.280Z,94516.00
2023-04-26T01:49:12.313Z,94518.00
2023-04-26T01:50:12.371Z,94518.00
2023-04-26T01:51:12.361Z,94520.00
2023-04-26T01:52:12.369Z,94520.00
2023-04-26T01:53:12.399Z,94518.00
2023-04-26T01:54:12.394Z,94520.00
2023-04-26T01:55:12.403Z,94520.00
2023-04-26T01:56:12.441Z,94518.00
2023-04-26T01:57:12.469Z,94520.00
2023-04-26T01:58:12.531Z,94520.00
2023-04-26T01:59:12.577Z,94522.00
2023-04-26T02:00:12.584Z,94518.00
2023-04-26T02:01:12.683Z,94522.00
2023-04-26T02:02:12.753Z,94524.00
2023-04-26T02:03:12.829Z,94524.00
2023-04-26T02:04:12.732Z,94525.00
2023-04-26T02:05:12.793Z,94525.00
2023-04-26T02:06:12.769Z,94524.00
2023-04-26T02:07:12.782Z,94527.00
2023-04-26T02:08:12.834Z,94525.00
2023-04-26T02:09:12.868Z,94527.00
2023-04-26T02:10:12.857Z,94527.00
2023-04-26T02:11:12.868Z,94527.00
2023-04-26T02:12:12.878Z,94525.00
2023-04-26T02:13:12.910Z,94527.00
2023-04-26T02:14:12.971Z,94525.00
2023-04-26T02:15:12.997Z,94522.00
2023-04-26T02:16:13.060Z,94524.00
2023-04-26T02:17:13.039Z,94522.00
2023-04-26T02:18:13.104Z,94522.00
2023-04-26T02:19:13.083Z,94520.00
2023-04-26T02:20:13.156Z,94516.00
2023-04-26T02:21:13.159Z,94516.00
2023-04-26T02:22:13.171Z,94516.00
2023-04-26T02:23:13.198Z,94516.00
2023-04-26T02:24:13.207Z,94514.00
2023-04-26T02:25:13.231Z,94512.00
2023-04-26T02:26:13.246Z,94512.00
2023-04-26T02:27:13.232Z,94512.00
2023-04-26T02:28:13.304Z,94514.00
2023-04-26T02:29:13.299Z,94510.00
2023-04-26T02:30:13.343Z,94514.00
2023-04-26T02:31:13.379Z,94510.00
2023-04-26T02:32:13.387Z,94514.00
2023-04-26T02:33:13.392Z,94510.00
2023-04-26T02:34:13.385Z,94508.00
2023-04-26T02:35:13.452Z,94510.00
2023-04-26T02:36:13.458Z,94510.00
2023-04-26T02:37:13.489Z,94510.00
2023-04-26T02:38:13.483Z,94510.00
2023-04-26T02:39:13.529Z,94508.00
2023-04-26T02:40:13.571Z,94510.00
2023-04-26T02:41:13.594Z,94506.00
2023-04-26T02:42:13.565Z,94508.00
2023-04-26T02:43:13.575Z,94508.00
2023-04-26T02:44:13.573Z,94510.00
2023-04-26T02:45:13.607Z,94512.00
2023-04-26T02:46:14.169Z,94512.00
2023-04-26T02:47:13.614Z,94512.00
2023-04-26T02:48:13.648Z,94512.00
2023-04-26T02:49:13.679Z,94512.00
2023-04-26T02:50:13.717Z,94512.00
2023-04-26T02:51:13.724Z,94514.00
2023-04-26T02:52:13.757Z,94512.00
2023-04-26T02:53:13.797Z,94512.00
2023-04-26T02:54:13.755Z,94512.00
2023-04-26T02:55:13.787Z,94516.00
2023-04-26T02:56:13.808Z,94512.00
2023-04-26T02:57:13.834Z,94510.00
2023-04-26T02:58:13.890Z,94508.00
2023-04-26T02:59:13.880Z,94506.00
2023-04-26T03:00:14.032Z,94508.00
2023-04-26T03:01:14.005Z,94504.00
2023-04-26T03:02:13.996Z,94504.00
2023-04-26T03:03:14.116Z,94500.00
2023-04-26T03:04:14.080Z,94498.00
2023-04-26T03:05:13.974Z,94500.00
2023-04-26T03:06:13.995Z,94502.00
2023-04-26T03:07:14.008Z,94504.00
2023-04-26T03:08:14.021Z,94504.00
2023-04-26T03:09:14.008Z,94504.00
2023-04-26T03:10:14.029Z,94502.00
2023-04-26T03:11:14.027Z,94500.00
2023-04-26T03:12:14.013Z,94500.00
2023-04-26T03:13:14.018Z,94502.00
2023-04-26T03:14:14.043Z,94502.00
2023-04-26T03:15:14.010Z,94496.00
2023-04-26T03:16:14.039Z,94504.00
2023-04-26T03:17:14.024Z,94502.00
2023-04-26T03:18:14.062Z,94502.00
2023-04-26T03:19:14.055Z,94500.00
2023-04-26T03:20:14.023Z,94502.00
2023-04-26T03:21:14.002Z,94502.00
2023-04-26T03:22:14.004Z,94504.00
2023-04-26T03:23:13.998Z,94510.00
2023-04-26T03:24:14.014Z,94506.00
2023-04-26T03:25:14.000Z,94506.00
2023-04-26T03:26:14.040Z,94506.00
2023-04-26T03:27:14.037Z,94508.00
2023-04-26T03:28:14.052Z,94510.00
2023-04-26T03:29:14.027Z,94510.00
2023-04-26T03:30:14.006Z,94510.00
2023-04-26T03:31:14.028Z,94506.00
2023-04-26T03:32:14.108Z,94504.00
2023-04-26T03:33:14.066Z,94504.00
2023-04-26T03:34:13.991Z,94506.00
2023-04-26T03:35:14.012Z,94504.00
2023-04-26T03:36:13.989Z,94504.00
2023-04-26T03:37:13.988Z,94504.00
2023-04-26T03:38:13.992Z,94506.00
2023-04-26T03:39:13.981Z,94508.00
2023-04-26T03:40:13.998Z,94510.00
2023-04-26T03:41:14.020Z,94510.00
2023-04-26T03:42:14.002Z,94512.00
2023-04-26T03:43:13.955Z,94510.00
2023-04-26T03:44:13.981Z,94512.00
2023-04-26T03:45:13.960Z,94508.00
2023-04-26T03:46:14.002Z,94508.00
2023-04-26T03:47:13.947Z,94510.00
2023-04-26T03:48:13.948Z,94510.00
2023-04-26T03:49:13.964Z,94514.00
2023-04-26T03:50:13.946Z,94510.00
2023-04-26T03:51:13.952Z,94512.00
2023-04-26T03:52:13.967Z,94514.00
2023-04-26T03:53:13.956Z,94512.00
2023-04-26T03:54:13.959Z,94514.00
2023-04-26T03:55:13.962Z,94516.00
2023-04-26T03:56:13.957Z,94518.00
2023-04-26T03:57:13.973Z,94520.00
2023-04-26T03:58:13.942Z,94520.00
2023-04-26T03:59:13.990Z,94520.00
2023-04-26T04:00:13.954Z,94520.00
2023-04-26T04:01:13.965Z,94522.00
2023-04-26T04:02:13.999Z,94524.00
2023-04-26T04:03:14.081Z,94529.00
2023-04-26T04:04:14.314Z,94527.00
2023-04-26T04:05:14.057Z,94525.00
2023-04-26T04:06:13.939Z,94527.00
2023-04-26T04:07:13.942Z,94525.00
2023-04-26T04:08:13.910Z,94527.00
2023-04-26T04:09:13.934Z,94525.00
2023-04-26T04:10:13.967Z,94527.00
2023-04-26T04:11:13.938Z,94529.00
2023-04-26T04:12:13.962Z,94529.00
2023-04-26T04:13:13.902Z,94527.00
2023-04-26T04:14:13.953Z,94529.00
2023-04-26T04:15:13.936Z,94531.00
2023-04-26T04:16:13.984Z,94533.00
2023-04-26T04:17:13.900Z,94533.00
2023-04-26T04:18:13.938Z,94533.00
2023-04-26T04:19:13.927Z,94533.00
2023-04-26T04:20:13.885Z,94531.00
2023-04-26T04:21:13.888Z,94529.00
2023-04-26T04:22:13.880Z,94531.00
2023-04-26T04:23:13.936Z,94531.00
2023-04-26T04:24:13.897Z,94527.00
2023-04-26T04:25:13.886Z,94531.00
2023-04-26T04:26:13.916Z,94533.00
2023-04-26T04:27:13.895Z,94535.00
2023-04-26T04:28:13.897Z,94535.00
2023-04-26T04:29:13.887Z,94537.00
2023-04-26T04:30:13.886Z,94537.00
2023-04-26T04:31:13.945Z,94539.00
2023-04-26T04:32:13.880Z,94539.00
2023-04-26T04:33:13.894Z,94541.00
2023-04-26T04:34:13.912Z,94543.00
2023-04-26T04:35:13.918Z,94543.00
2023-04-26T04:36:13.912Z,94543.00
2023-04-26T04:37:13.898Z,94545.00
2023-04-26T04:38:13.914Z,94543.00
2023-04-26T04:39:13.898Z,94545.00
2023-04-26T04:40:13.940Z,94545.00
2023-04-26T04:41:13.896Z,94545.00
2023-04-26T04:42:13.908Z,94547.00
2023-04-26T04:43:13.925Z,94549.00
2023-04-26T04:44:13.942Z,94551.00
2023-04-26T04:45:13.941Z,94553.00
2023-04-26T04:46:13.963Z,94553.00
2023-04-26T04:47:13.946Z,94551.00
2023-04-26T04:48:13.949Z,94555.00
2023-04-26T04:49:13.962Z,94557.00
2023-04-26T04:50:13.990Z,94559.00
2023-04-26T04:51:13.953Z,94559.00
2023-04-26T04:52:13.957Z,94561.00
2023-04-26T04:53:14.005Z,94559.00
2023-04-26T04:54:13.972Z,94563.00
2023-04-26T04:55:13.991Z,94563.00
2023-04-26T04:56:13.995Z,94565.00
2023-04-26T04:57:13.990Z,94569.00
2023-04-26T04:58:13.988Z,94571.00
2023-04-26T04:59:14.000Z,94571.00
2023-04-26T05:00:14.002Z,94571.00
2023-04-26T05:01:14.013Z,94573.00
2023-04-26T05:02:14.118Z,94573.00
2023-04-26T05:03:14.148Z,94573.00
2023-04-26T05:04:14.153Z,94575.00
2023-04-26T05:05:14.052Z,94573.00
2023-04-26T05:06:14.022Z,94575.00
2023-04-26T05:07:14.024Z,94575.00
2023-04-26T05:08:14.019Z,94576.00
2023-04-26T05:09:14.018Z,94575.00
2023-04-26T05:10:14.034Z,94575.00
2023-04-26T05:11:14.028Z,94575.00
2023-04-26T05:12:14.031Z,94575.00
2023-04-26T05:13:14.032Z,94575.00
2023-04-26T05:14:14.041Z,94576.00
2023-04-26T05:15:14.061Z,94576.00
2023-04-26T05:16:14.078Z,94576.00
2023-04-26T05:17:14.032Z,94578.00
2023-04-26T05:18:14.112Z,94576.00
2023-04-26T05:19:14.035Z,94578.00
2023-04-26T05:20:14.037Z,94578.00
2023-04-26T05:21:14.031Z,94578.00
2023-04-26T05:22:14.038Z,94578.00
2023-04-26T05:23:14.049Z,94578.00
2023-04-26T05:24:14.023Z,94578.00
2023-04-26T05:25:14.053Z,94578.00
2023-04-26T05:26:14.114Z,94578.00
2023-04-26T05:27:14.029Z,94580.00
2023-04-26T05:28:14.074Z,94582.00
2023-04-26T05:29:14.125Z,94582.00
2023-04-26T05:30:14.035Z,94582.00
2023-04-26T05:31:14.109Z,94586.00
2023-04-26T05:32:14.061Z,94588.00
2023-04-26T05:33:14.176Z,94588.00
2023-04-26T05:34:14.157Z,94588.00
2023-04-26T05:35:14.680Z,94590.00
2023-04-26T05:36:14.427Z,94588.00
2023-04-26T05:37:14.360Z,94588.00
2023-04-26T05:38:14.394Z,94584.00
2023-04-26T05:39:14.514Z,94586.00
2023-04-26T05:40:14.564Z,94590.00
2023-04-26T05:41:14.546Z,94582.00
2023-04-26T05:42:16.363Z,94582.00
2023-04-26T05:43:14.889Z,94582.00
2023-04-26T05:44:14.595Z,94584.00
2023-04-26T05:45:14.699Z,94584.00
2023-04-26T05:46:14.622Z,94586.00
2023-04-26T05:47:14.589Z,94588.00
2023-04-26T05:48:14.766Z,94588.00
2023-04-26T05:49:14.657Z,94588.00
2023-04-26T05:50:14.698Z,94590.00
2023-04-26T05:51:14.576Z,94590.00
2023-04-26T05:52:14.586Z,94588.00
2023-04-26T05:53:14.569Z,94588.00
2023-04-26T05:54:14.524Z,94590.00
2023-04-26T05:55:14.528Z,94592.00
2023-04-26T05:56:14.562Z,94594.00
2023-04-26T05:57:14.528Z,94592.00
2023-04-26T05:58:14.529Z,94592.00
2023-04-26T05:59:14.615Z,94594.00
2023-04-26T06:00:14.565Z,94596.00
2023-04-26T06:01:14.720Z,94596.00
2023-04-26T06:02:14.541Z,94596.00
2023-04-26T06:03:14.761Z,94598.00
2023-04-26T06:04:14.740Z,94600.00
2023-04-26T06:05:14.880Z,94600.00
2023-04-26T06:06:14.546Z,94598.00
2023-04-26T06:07:14.458Z,94596.00
2023-04-26T06:08:14.433Z,94594.00
2023-04-26T06:09:14.436Z,94598.00
2023-04-26T06:10:14.469Z,94598.00
2023-04-26T06:11:14.449Z,94602.00
2023-04-26T06:12:14.447Z,94602.00
2023-04-26T06:13:14.396Z,94602.00
2023-04-26T06:14:28.763Z,94602.00
2023-04-26T06:15:15.425Z,94602.00
2023-04-26T06:16:14.445Z,94606.00
2023-04-26T06:17:14.455Z,94608.00
2023-04-26T06:18:14.439Z,94606.00
2023-04-26T06:19:14.356Z,94604.00
2023-04-26T06:20:14.392Z,94604.00
2023-04-26T06:21:14.464Z,94602.00
2023-04-26T06:22:14.338Z,94602.00
2023-04-26T06:23:14.345Z,94606.00
2023-04-26T06:24:14.411Z,94604.00
2023-04-26T06:25:14.471Z,94606.00
2023-04-26T06:26:14.534Z,94602.00
2023-04-26T06:27:14.580Z,94606.00
2023-04-26T06:28:14.640Z,94604.00
2023-04-26T06:29:14.725Z,94604.00
2023-04-26T06:30:15.200Z,94606.00
2023-04-26T06:31:14.995Z,94608.00
2023-04-26T06:32:14.897Z,94606.00
2023-04-26T06:33:14.933Z,94608.00
2023-04-26T06:34:14.992Z,94608.00
2023-04-26T06:35:15.130Z,94608.00
2023-04-26T06:36:15.113Z,94608.00
2023-04-26T06:37:15.191Z,94606.00
2023-04-26T06:38:15.214Z,94606.00
2023-04-26T06:39:15.313Z,94608.00
2023-04-26T06:40:15.708Z,94608.00
2023-04-26T06:41:15.415Z,94606.00
2023-04-26T06:42:15.471Z,94608.00
2023-04-26T06:43:15.486Z,94610.00
2023-04-26T06:44:15.504Z,94614.00
2023-04-26T06:45:15.576Z,94614.00
2023-04-26T06:46:15.629Z,94612.00
2023-04-26T06:47:15.612Z,94610.00
2023-04-26T06:48:15.673Z,94610.00
2023-04-26T06:49:15.955Z,94606.00
2023-04-26T06:50:15.886Z,94608.00
2023-04-26T06:51:15.776Z,94606.00
2023-04-26T06:52:15.875Z,94606.00
2023-04-26T06:53:15.883Z,94608.00
2023-04-26T06:54:15.892Z,94610.00
2023-04-26T06:55:16.233Z,94610.00
2023-04-26T06:56:15.998Z,94610.00
2023-04-26T06:57:15.991Z,94608.00
2023-04-26T06:58:16.014Z,94608.00
2023-04-26T06:59:16.073Z,94606.00
2023-04-26T07:00:16.132Z,94606.00
2023-04-26T07:01:16.191Z,94604.00
2023-04-26T07:02:16.270Z,94606.00
2023-04-26T07:03:16.248Z,94608.00
2023-04-26T07:04:16.263Z,94604.00
2023-04-26T07:05:16.286Z,94602.00
2023-04-26T07:06:16.173Z,94604.00
2023-04-26T07:07:16.349Z,94598.00
2023-04-26T07:08:16.212Z,94604.00
2023-04-26T07:09:16.215Z,94598.00
2023-04-26T07:10:16.249Z,94602.00
2023-04-26T07:11:16.261Z,94602.00
2023-04-26T07:12:16.306Z,94602.00
2023-04-26T07:13:16.319Z,94602.00
2023-04-26T07:14:16.317Z,94602.00
2023-04-26T07:15:16.351Z,94606.00
2023-04-26T07:16:16.380Z,94604.00
2023-04-26T07:17:16.351Z,94606.00
2023-04-26T07:18:16.420Z,94602.00
2023-04-26T07:19:16.369Z,94600.00
2023-04-26T07:20:16.414Z,94600.00
2023-04-26T07:21:16.420Z,94600.00
2023-04-26T07:22:16.467Z,94600.00
2023-04-26T07:23:16.442Z,94598.00
2023-04-26T07:24:16.587Z,94596.00
2023-04-26T07:25:16.460Z,94594.00
2023-04-26T07:26:16.466Z,94596.00
2023-04-26T07:27:16.482Z,94596.00
2023-04-26T07:28:16.484Z,94594.00
2023-04-26T07:29:16.495Z,94590.00
2023-04-26T07:30:16.582Z,94592.00
2023-04-26T07:31:16.492Z,94594.00
2023-04-26T07:32:16.519Z,94596.00
2023-04-26T07:33:16.562Z,94598.00
2023-04-26T07:34:16.528Z,94596.00
2023-04-26T07:35:16.719Z,94596.00
2023-04-26T07:36:16.521Z,94596.00
2023-04-26T07:37:16.550Z,94598.00
2023-04-26T07:38:16.504Z,94594.00
2023-04-26T07:39:16.523Z,94596.00
2023-04-26T07:40:16.656Z,94590.00
2023-04-26T07:41:16.572Z,94588.00
2023-04-26T07:42:16.549Z,94586.00
2023-04-26T07:43:16.555Z,94586.00
2023-04-26T07:44:16.553Z,94586.00
2023-04-26T07:45:16.571Z,94586.00
2023-04-26T07:46:16.735Z,94584.00
2023-04-26T07:47:16.602Z,94586.00
2023-04-26T07:48:16.650Z,94586.00
2023-04-26T07:49:16.637Z,94584.00
2023-04-26T07:50:16.745Z,94584.00
2023-04-26T07:51:16.711Z,94584.00
2023-04-26T07:52:16.745Z,94582.00
2023-04-26T07:53:16.750Z,94582.00
2023-04-26T07:54:16.787Z,94584.00
2023-04-26T07:55:17.849Z,94584.00
2023-04-26T07:56:17.001Z,94588.00
2023-04-26T07:57:16.886Z,94586.00
2023-04-26T07:58:16.981Z,94584.00
2023-04-26T07:59:16.949Z,94584.00
2023-04-26T08:00:17.243Z,94580.00
2023-04-26T08:01:17.144Z,94586.00
2023-04-26T08:02:17.174Z,94586.00
2023-04-26T08:03:17.259Z,94586.00
2023-04-26T08:04:17.270Z,94584.00
2023-04-26T08:05:17.368Z,94588.00
2023-04-26T08:06:17.332Z,94588.00
2023-04-26T08:07:17.259Z,94586.00
2023-04-26T08:08:18.981Z,94584.00
2023-04-26T08:09:17.296Z,94584.00
2023-04-26T08:10:18.266Z,94584.00
2023-04-26T08:11:17.382Z,94582.00
2023-04-26T08:12:18.242Z,94580.00
2023-04-26T08:13:17.473Z,94578.00
2023-04-26T08:14:17.519Z,94575.00
2023-04-26T08:15:17.534Z,94575.00
2023-04-26T08:16:17.619Z,94575.00
2023-04-26T08:17:17.672Z,94575.00
2023-04-26T08:18:17.686Z,94578.00
2023-04-26T08:19:17.719Z,94575.00
2023-04-26T08:20:17.872Z,94569.00
2023-04-26T08:21:17.940Z,94571.00
2023-04-26T08:22:17.885Z,94573.00
2023-04-26T08:23:17.899Z,94569.00
2023-04-26T08:24:17.973Z,94565.00
2023-04-26T08:25:18.015Z,94567.00
2023-04-26T08:26:18.071Z,94561.00
2023-04-26T08:27:18.086Z,94561.00
2023-04-26T08:28:18.280Z,94563.00
2023-04-26T08:29:18.311Z,94565.00
2023-04-26T08:30:18.848Z,94567.00
2023-04-26T08:31:18.497Z,94563.00
2023-04-26T08:32:18.357Z,94559.00
2023-04-26T08:33:18.473Z,94565.00
2023-04-26T08:34:18.527Z,94561.00
2023-04-26T08:35:18.972Z,94561.00
2023-04-26T08:36:19.281Z,94561.00
2023-04-26T08:37:18.787Z,94561.00
2023-04-26T08:38:18.748Z,94561.00
2023-04-26T08:39:18.788Z,94559.00
2023-04-26T08:40:19.285Z,94561.00
2023-04-26T08:41:18.878Z,94555.00
2023-04-26T08:42:18.905Z,94555.00
2023-04-26T08:43:18.894Z,94553.00
2023-04-26T08:44:19.145Z,94551.00
2023-04-26T08:45:18.919Z,94553.00
2023-04-26T08:46:18.930Z,94553.00
2023-04-26T08:47:18.962Z,94553.00
2023-04-26T08:48:19.117Z,94557.00
2023-04-26T08:49:19.137Z,94555.00
2023-04-26T08:50:19.297Z,94551.00
2023-04-26T08:51:19.242Z,94549.00
2023-04-26T08:52:19.297Z,94549.00
2023-04-26T08:53:19.283Z,94547.00
2023-04-26T08:54:19.355Z,94541.00
2023-04-26T08:55:19.413Z,94539.00
2023-04-26T08:56:19.459Z,94541.00
2023-04-26T08:57:19.526Z,94541.00
2023-04-26T08:58:19.536Z,94543.00
2023-04-26T08:59:19.561Z,94545.00
2023-04-26T09:00:19.759Z,94541.00
2023-04-26T09:01:19.794Z,94541.00
2023-04-26T09:02:19.737Z,94537.00
2023-04-26T09:03:19.852Z,94539.00
2023-04-26T09:04:19.971Z,94537.00
2023-04-26T09:05:19.781Z,94535.00
2023-04-26T09:06:20.271Z,94533.00
2023-04-26T09:07:19.876Z,94539.00
2023-04-26T09:08:19.901Z,94537.00
2023-04-26T09:09:19.996Z,94539.00
2023-04-26T09:10:19.952Z,94539.00
2023-04-26T09:11:20.315Z,94535.00
2023-04-26T09:12:20.044Z,94533.00
2023-04-26T09:13:20.084Z,94533.00
2023-04-26T09:14:20.094Z,94531.00
2023-04-26T09:15:20.135Z,94529.00
2023-04-26T09:16:20.280Z,94527.00
2023-04-26T09:17:20.236Z,94527.00
2023-04-26T09:18:20.253Z,94525.00
2023-04-26T09:19:20.236Z,94524.00
2023-04-26T09:20:20.281Z,94522.00
2023-04-26T09:21:20.286Z,94524.00
2023-04-26T09:22:20.282Z,94522.00
2023-04-26T09:23:20.321Z,94520.00
2023-04-26T09:24:20.357Z,94516.00
2023-04-26T09:25:20.358Z,94516.00
2023-04-26T09:26:20.428Z,94520.00
2023-04-26T09:27:20.418Z,94516.00
2023-04-26T09:28:20.381Z,94512.00
2023-04-26T09:29:20.431Z,94512.00
2023-04-26T09:30:20.434Z,94508.00
2023-04-26T09:31:21.330Z,94508.00
2023-04-26T09:32:20.558Z,94506.00
2023-04-26T09:33:20.576Z,94510.00
2023-04-26T09:34:20.577Z,94514.00
2023-04-26T09:35:20.589Z,94510.00
2023-04-26T09:36:20.612Z,94506.00
2023-04-26T09:37:20.677Z,94510.00
2023-04-26T09:38:20.711Z,94506.00
2023-04-26T09:39:20.726Z,94504.00
2023-04-26T09:40:20.825Z,94502.00
2023-04-26T09:41:21.334Z,94502.00
2023-04-26T09:42:20.867Z,94502.00
2023-04-26T09:43:20.938Z,94502.00
2023-04-26T09:44:20.919Z,94500.00
2023-04-26T09:45:20.910Z,94496.00
2023-04-26T09:46:21.018Z,94496.00
2023-04-26T09:47:20.949Z,94494.00
2023-04-26T09:48:21.008Z,94490.00
2023-04-26T09:49:21.008Z,94490.00
2023-04-26T09:50:21.035Z,94488.00
2023-04-26T09:51:21.386Z,94488.00
2023-04-26T09:52:21.086Z,94490.00
2023-04-26T09:53:21.148Z,94488.00
2023-04-26T09:54:21.117Z,94486.00
2023-04-26T09:55:34.174Z,94486.00
2023-04-26T09:56:22.227Z,94484.00
2023-04-26T09:57:21.143Z,94484.00
2023-04-26T09:58:21.142Z,94482.00
2023-04-26T09:59:21.105Z,94480.00
2023-04-26T10:00:21.099Z,94480.00
2023-04-26T10:01:21.267Z,94478.00
2023-04-26T10:02:21.144Z,94474.00
2023-04-26T10:03:21.258Z,94476.00
2023-04-26T10:04:21.193Z,94474.00
2023-04-26T10:05:21.109Z,94473.00
2023-04-26T10:06:21.081Z,94474.00
2023-04-26T10:07:21.100Z,94474.00
2023-04-26T10:08:21.051Z,94474.00
2023-04-26T10:09:21.039Z,94473.00
2023-04-26T10:10:21.043Z,94473.00
2023-04-26T10:11:21.065Z,94473.00
2023-04-26T10:12:21.121Z,94473.00
2023-04-26T10:13:21.021Z,94469.00
2023-04-26T10:14:21.025Z,94471.00
2023-04-26T10:15:21.015Z,94469.00
2023-04-26T10:16:21.081Z,94469.00
2023-04-26T10:17:21.106Z,94463.00
2023-04-26T10:18:20.991Z,94461.00
2023-04-26T10:19:20.968Z,94459.00
2023-04-26T10:20:21.134Z,94457.00
2023-04-26T10:21:21.094Z,94453.00
2023-04-26T10:22:21.051Z,94453.00
2023-04-26T10:23:21.081Z,94453.00
2023-04-26T10:24:21.104Z,94453.00
2023-04-26T10:25:21.140Z,94455.00
2023-04-26T10:26:21.144Z,94455.00
2023-04-26T10:27:21.142Z,94449.00
2023-04-26T10:28:21.174Z,94447.00
2023-04-26T10:29:21.805Z,94443.00
2023-04-26T10:30:21.251Z,94439.00
2023-04-26T10:31:21.372Z,94439.00
2023-04-26T10:32:21.296Z,94443.00
2023-04-26T10:33:21.382Z,94439.00
2023-04-26T10:34:21.317Z,94441.00
2023-04-26T10:35:21.353Z,94439.00
2023-04-26T10:36:21.831Z,94439.00
2023-04-26T10:37:21.392Z,94433.00
2023-04-26T10:38:21.408Z,94435.00
2023-04-26T10:39:21.463Z,94433.00
2023-04-26T10:40:21.446Z,94433.00
2023-04-26T10:41:21.833Z,94431.00
2023-04-26T10:42:22.483Z,94431.00
2023-04-26T10:43:21.904Z,94429.00
2023-04-26T10:44:21.531Z,94426.00
2023-04-26T10:45:21.553Z,94427.00
2023-04-26T10:46:21.578Z,94422.00
2023-04-26T10:47:21.659Z,94412.00
2023-04-26T10:48:21.599Z,94414.00
2023-04-26T10:49:22.105Z,94412.00
2023-04-26T10:50:21.677Z,94410.00
2023-04-26T10:51:21.979Z,94406.00
2023-04-26T10:52:21.727Z,94404.00
2023-04-26T10:53:21.784Z,94402.00
2023-04-26T10:54:21.761Z,94402.00
2023-04-26T10:55:21.952Z,94398.00
2023-04-26T10:56:21.809Z,94396.00
2023-04-26T10:57:21.832Z,94398.00
2023-04-26T10:58:21.835Z,94394.00
2023-04-26T10:59:39.734Z,94396.00
2023-04-26T11:00:22.878Z,94394.00
2023-04-26T11:01:21.927Z,94394.00
2023-04-26T11:02:21.899Z,94392.00
2023-04-26T11:03:21.953Z,94394.00
2023-04-26T11:04:21.947Z,94392.00
2023-04-26T11:05:23.525Z,94392.00
2023-04-26T11:06:21.829Z,94390.00
2023-04-26T11:07:21.848Z,94390.00
2023-04-26T11:08:21.830Z,94388.00
2023-04-26T11:09:21.809Z,94388.00
2023-04-26T11:10:21.809Z,94386.00
2023-04-26T11:11:21.809Z,94384.00
2023-04-26T11:12:21.840Z,94384.00
2023-04-26T11:13:21.812Z,94384.00
2023-04-26T11:14:21.830Z,94384.00
2023-04-26T11:15:21.794Z,94384.00
2023-04-26T11:16:21.996Z,94380.00
2023-04-26T11:17:21.801Z,94382.00
2023-04-26T11:18:21.757Z,94373.00
2023-04-26T11:19:21.767Z,94373.00
2023-04-26T11:20:21.767Z,94369.00
2023-04-26T11:21:21.867Z,94369.00
2023-04-26T11:22:21.804Z,94365.00
2023-04-26T11:23:21.730Z,94363.00
2023-04-26T11:24:21.767Z,94361.00
2023-04-26T11:25:21.720Z,94361.00
2023-04-26T11:26:21.729Z,94357.00
2023-04-26T11:27:21.715Z,94359.00
2023-04-26T11:28:21.700Z,94359.00
2023-04-26T11:29:21.734Z,94355.00
2023-04-26T11:30:21.722Z,94349.00
2023-04-26T11:31:21.816Z,94351.00
2023-04-26T11:32:21.701Z,94349.00
2023-04-26T11:33:21.667Z,94349.00
2023-04-26T11:34:21.645Z,94349.00
2023-04-26T11:35:21.649Z,94351.00
2023-04-26T11:36:21.848Z,94349.00
2023-04-26T11:37:21.641Z,94351.00
2023-04-26T11:38:21.650Z,94347.00
2023-04-26T11:39:21.620Z,94349.00
2023-04-26T11:40:21.696Z,94349.00
2023-04-26T11:41:21.870Z,94349.00
2023-04-26T11:42:21.616Z,94349.00
2023-04-26T11:43:21.620Z,94347.00
2023-04-26T11:44:21.646Z,94343.00